sensor_id;sensor_type;location;lat;lon;timestamp;P1;durP1;ratioP1;P2;durP2;ratioP2
2928;SDS011;1474;51.460;7.150;2024-01-15T06:01:13;2.13;;;1.67;;
2928;SDS011;1474;51.460;7.150;2024-01-15T06:03:38;3.03;;;2.38;;
2928;SDS011;1474;51.460;7.150;2024-01-15T06:06:04;2.10;;;1.70;;
2928;SDS011;1474;51.460;7.150;2024-01-15T06:08:30;2.65;;;1.70;;
2928;SDS011;1474;51.460;7.150;2024-01-15T06:10:56;2.22;;;1.70;;
2928;SDS011;1474;51.460;7.150;2024-01-15T06:13:22;1.83;;;1.63;;
2928;SDS011;1474;51.460;7.150;2024-01-15T06:15:47;2.63;;;1.83;;
2928;SDS011;1474;51.460;7.150;2024-01-15T06:18:13;2.53;;;2.00;;
2928;SDS011;1474;51.460;7.150;2024-01-15T06:20:39;2.80;;;1.60;;
2928;SDS011;1474;51.460;7.150;2024-01-15T06:23:05;2.10;;;1.63;;
2928;SDS011;1474;51.460;7.150;2024-01-15T06:25:30;2.13;;;1.85;;
2928;SDS011;1474;51.460;7.150;2024-01-15T06:27:56;3.03;;;1.80;;
2928;SDS011;1474;51.460;7.150;2024-01-15T06:30:22;2.15;;;1.92;;
2928;SDS011;1474;51.460;7.150;2024-01-15T06:32:48;2.13;;;1.70;;
2928;SDS011;1474;51.460;7.150;2024-01-15T06:35:14;2.45;;;1.58;;
2928;SDS011;1474;51.460;7.150;2024-01-15T06:37:39;3.10;;;1.98;;
2928;SDS011;1474;51.460;7.150;2024-01-15T06:40:05;2.83;;;1.95;;
2928;SDS011;1474;51.460;7.150;2024-01-15T06:42:32;2.13;;;1.92;;
2928;SDS011;1474;51.460;7.150;2024-01-15T06:44:58;1.67;;;1.58;;
2928;SDS011;1474;51.460;7.150;2024-01-15T06:47:23;2.60;;;1.83;;
2928;SDS011;1474;51.460;7.150;2024-01-15T06:49:49;2.30;;;1.60;;
2928;SDS011;1474;51.460;7.150;2024-01-15T06:52:16;2.17;;;1.58;;
2928;SDS011;1474;51.460;7.150;2024-01-15T06:54:42;2.95;;;1.67;;
2928;SDS011;1474;51.460;7.150;2024-01-15T06:57:08;3.20;;;1.95;;
2928;SDS011;1474;51.460;7.150;2024-01-15T06:59:34;1.98;;;1.70;;
2928;SDS011;1474;51.460;7.150;2024-01-15T07:02:02;2.35;;;1.77;;
2928;SDS011;1474;51.460;7.150;2024-01-15T07:04:28;2.25;;;1.73;;
2928;SDS011;1474;51.460;7.150;2024-01-15T07:06:54;4.10;;;2.05;;
2928;SDS011;1474;51.460;7.150;2024-01-15T07:09:20;2.40;;;1.90;;
2928;SDS011;1474;51.460;7.150;2024-01-15T07:11:46;2.22;;;1.85;;
2928;SDS011;1474;51.460;7.150;2024-01-15T07:14:12;2.45;;;1.95;;
2928;SDS011;1474;51.460;7.150;2024-01-15T07:16:38;2.85;;;1.70;;
2928;SDS011;1474;51.460;7.150;2024-01-15T07:19:03;2.10;;;1.60;;
2928;SDS011;1474;51.460;7.150;2024-01-15T07:21:30;1.88;;;1.60;;
2928;SDS011;1474;51.460;7.150;2024-01-15T07:23:55;2.22;;;1.70;;
2928;SDS011;1474;51.460;7.150;2024-01-15T07:26:21;1.88;;;1.63;;
2928;SDS011;1474;51.460;7.150;2024-01-15T07:28:50;2.47;;;1.67;;
2928;SDS011;1474;51.460;7.150;2024-01-15T07:31:16;2.22;;;1.50;;
2928;SDS011;1474;51.460;7.150;2024-01-15T07:33:43;2.00;;;1.63;;
2928;SDS011;1474;51.460;7.150;2024-01-15T07:36:08;2.22;;;1.90;;
2928;SDS011;1474;51.460;7.150;2024-01-15T07:38:37;1.63;;;1.48;;
2928;SDS011;1474;51.460;7.150;2024-01-15T07:41:03;2.00;;;1.42;;
2928;SDS011;1474;51.460;7.150;2024-01-15T07:43:29;2.13;;;1.83;;
2928;SDS011;1474;51.460;7.150;2024-01-15T07:45:55;2.22;;;1.73;;
2928;SDS011;1474;51.460;7.150;2024-01-15T07:48:21;2.42;;;1.90;;
2928;SDS011;1474;51.460;7.150;2024-01-15T07:50:46;2.03;;;1.70;;
2928;SDS011;1474;51.460;7.150;2024-01-15T07:53:12;2.35;;;1.65;;
2928;SDS011;1474;51.460;7.150;2024-01-15T07:55:41;1.77;;;1.20;;
2928;SDS011;1474;51.460;7.150;2024-01-15T07:58:07;2.75;;;1.20;;
2928;SDS011;1474;51.460;7.150;2024-01-15T08:00:32;1.33;;;1.15;;
2928;SDS011;1474;51.460;7.150;2024-01-15T08:02:58;2.88;;;1.60;;
2928;SDS011;1474;51.460;7.150;2024-01-15T08:05:24;1.92;;;1.40;;
2928;SDS011;1474;51.460;7.150;2024-01-15T08:07:49;1.98;;;1.48;;
2928;SDS011;1474;51.460;7.150;2024-01-15T08:10:15;2.35;;;1.63;;
2928;SDS011;1474;51.460;7.150;2024-01-15T08:12:41;1.95;;;1.20;;
2928;SDS011;1474;51.460;7.150;2024-01-15T08:15:07;1.27;;;1.05;;
2928;SDS011;1474;51.460;7.150;2024-01-15T08:17:33;1.50;;;1.20;;
2928;SDS011;1474;51.460;7.150;2024-01-15T08:19:59;2.15;;;1.42;;
2928;SDS011;1474;51.460;7.150;2024-01-15T08:22:45;2.00;;;1.30;;
2928;SDS011;1474;51.460;7.150;2024-01-15T08:25:11;1.48;;;1.20;;
2928;SDS011;1474;51.460;7.150;2024-01-15T08:27:38;1.90;;;1.30;;
2928;SDS011;1474;51.460;7.150;2024-01-15T08:30:03;1.13;;;1.02;;
2928;SDS011;1474;51.460;7.150;2024-01-15T08:32:30;2.05;;;1.65;;
2928;SDS011;1474;51.460;7.150;2024-01-15T08:34:55;1.70;;;1.17;;
2928;SDS011;1474;51.460;7.150;2024-01-15T08:37:21;1.45;;;1.30;;
2928;SDS011;1474;51.460;7.150;2024-01-15T08:39:47;1.52;;;1.25;;
2928;SDS011;1474;51.460;7.150;2024-01-15T08:42:13;1.60;;;1.20;;
2928;SDS011;1474;51.460;7.150;2024-01-15T08:44:38;2.17;;;1.60;;
2928;SDS011;1474;51.460;7.150;2024-01-15T08:47:05;1.20;;;1.10;;
2928;SDS011;1474;51.460;7.150;2024-01-15T08:49:31;1.60;;;1.30;;
2928;SDS011;1474;51.460;7.150;2024-01-15T08:51:57;2.22;;;1.40;;
2928;SDS011;1474;51.460;7.150;2024-01-15T08:54:23;1.70;;;1.20;;
2928;SDS011;1474;51.460;7.150;2024-01-15T08:56:49;1.60;;;1.15;;
2928;SDS011;1474;51.460;7.150;2024-01-15T08:59:14;1.52;;;1.30;;
2928;SDS011;1474;51.460;7.150;2024-01-15T09:01:41;1.33;;;1.02;;
2928;SDS011;1474;51.460;7.150;2024-01-15T09:04:07;1.70;;;1.13;;
2928;SDS011;1474;51.460;7.150;2024-01-15T09:06:32;1.77;;;1.40;;
2928;SDS011;1474;51.460;7.150;2024-01-15T09:08:58;1.30;;;1.08;;
2928;SDS011;1474;51.460;7.150;2024-01-15T09:11:25;1.80;;;1.20;;
2928;SDS011;1474;51.460;7.150;2024-01-15T09:13:50;1.10;;;0.90;;
2928;SDS011;1474;51.460;7.150;2024-01-15T09:16:17;1.17;;;1.05;;
2928;SDS011;1474;51.460;7.150;2024-01-15T09:18:42;2.47;;;1.10;;
2928;SDS011;1474;51.460;7.150;2024-01-15T09:21:08;1.20;;;1.13;;
2928;SDS011;1474;51.460;7.150;2024-01-15T09:23:34;1.20;;;1.10;;
2928;SDS011;1474;51.460;7.150;2024-01-15T09:26:00;1.55;;;0.90;;
2928;SDS011;1474;51.460;7.150;2024-01-15T09:28:26;1.23;;;0.98;;
2928;SDS011;1474;51.460;7.150;2024-01-15T09:30:51;2.00;;;1.17;;
2928;SDS011;1474;51.460;7.150;2024-01-15T09:33:17;1.50;;;1.40;;
2928;SDS011;1474;51.460;7.150;2024-01-15T09:35:43;1.15;;;1.00;;
2928;SDS011;1474;51.460;7.150;2024-01-15T09:38:09;1.52;;;1.27;;
2928;SDS011;1474;51.460;7.150;2024-01-15T09:40:34;1.52;;;1.10;;
2928;SDS011;1474;51.460;7.150;2024-01-15T09:43:08;2.75;;;1.20;;
2928;SDS011;1474;51.460;7.150;2024-01-15T09:45:34;1.60;;;1.25;;
2928;SDS011;1474;51.460;7.150;2024-01-15T09:47:59;1.20;;;1.10;;
2928;SDS011;1474;51.460;7.150;2024-01-15T09:50:26;1.40;;;1.30;;
2928;SDS011;1474;51.460;7.150;2024-01-15T09:52:52;2.40;;;1.35;;
2928;SDS011;1474;51.460;7.150;2024-01-15T09:55:19;3.10;;;1.90;;
2928;SDS011;1474;51.460;7.150;2024-01-15T09:57:46;1.90;;;1.30;;
2928;SDS011;1474;51.460;7.150;2024-01-15T10:00:12;1.85;;;1.08;;
2928;SDS011;1474;51.460;7.150;2024-01-15T10:02:38;1.98;;;1.27;;
2928;SDS011;1474;51.460;7.150;2024-01-15T10:05:05;2.28;;;1.45;;
2928;SDS011;1474;51.460;7.150;2024-01-15T10:07:31;1.75;;;1.10;;
2928;SDS011;1474;51.460;7.150;2024-01-15T10:10:02;4.95;;;1.33;;
2928;SDS011;1474;51.460;7.150;2024-01-15T10:12:28;2.55;;;1.35;;
2928;SDS011;1474;51.460;7.150;2024-01-15T10:14:55;2.65;;;1.50;;
2928;SDS011;1474;51.460;7.150;2024-01-15T10:17:21;2.30;;;1.48;;
2928;SDS011;1474;51.460;7.150;2024-01-15T10:19:49;2.40;;;1.58;;
2928;SDS011;1474;51.460;7.150;2024-01-15T10:22:14;3.03;;;1.50;;
2928;SDS011;1474;51.460;7.150;2024-01-15T10:24:41;1.83;;;1.40;;
2928;SDS011;1474;51.460;7.150;2024-01-15T10:27:07;3.78;;;1.75;;
2928;SDS011;1474;51.460;7.150;2024-01-15T10:29:34;3.10;;;1.73;;
2928;SDS011;1474;51.460;7.150;2024-01-15T10:32:01;2.53;;;1.27;;
2928;SDS011;1474;51.460;7.150;2024-01-15T10:34:30;2.10;;;1.52;;
2928;SDS011;1474;51.460;7.150;2024-01-15T10:36:55;3.30;;;2.03;;
2928;SDS011;1474;51.460;7.150;2024-01-15T10:39:22;2.20;;;1.40;;
2928;SDS011;1474;51.460;7.150;2024-01-15T10:41:48;2.97;;;1.90;;
2928;SDS011;1474;51.460;7.150;2024-01-15T10:44:16;2.63;;;1.38;;
2928;SDS011;1474;51.460;7.150;2024-01-15T10:46:43;3.92;;;1.98;;
2928;SDS011;1474;51.460;7.150;2024-01-15T10:49:11;1.95;;;1.40;;
2928;SDS011;1474;51.460;7.150;2024-01-15T10:51:37;2.88;;;1.80;;
2928;SDS011;1474;51.460;7.150;2024-01-15T10:54:04;3.70;;;1.60;;
2928;SDS011;1474;51.460;7.150;2024-01-15T10:56:33;4.47;;;2.08;;
2928;SDS011;1474;51.460;7.150;2024-01-15T10:59:01;3.15;;;1.40;;
2928;SDS011;1474;51.460;7.150;2024-01-15T11:01:28;4.68;;;1.83;;
2928;SDS011;1474;51.460;7.150;2024-01-15T11:03:55;2.15;;;1.33;;
2928;SDS011;1474;51.460;7.150;2024-01-15T11:06:23;4.03;;;1.77;;
2928;SDS011;1474;51.460;7.150;2024-01-15T11:08:50;2.60;;;1.48;;
2928;SDS011;1474;51.460;7.150;2024-01-15T11:11:18;2.97;;;1.50;;
2928;SDS011;1474;51.460;7.150;2024-01-15T11:13:47;4.10;;;1.50;;
2928;SDS011;1474;51.460;7.150;2024-01-15T11:16:15;3.00;;;1.45;;
2928;SDS011;1474;51.460;7.150;2024-01-15T11:18:42;2.45;;;1.70;;
2928;SDS011;1474;51.460;7.150;2024-01-15T11:21:26;2.08;;;1.38;;
2928;SDS011;1474;51.460;7.150;2024-01-15T11:26:32;3.05;;;1.92;;
2928;SDS011;1474;51.460;7.150;2024-01-15T11:29:04;2.05;;;1.23;;
2928;SDS011;1474;51.460;7.150;2024-01-15T11:34:10;3.65;;;1.40;;
2928;SDS011;1474;51.460;7.150;2024-01-15T11:41:55;2.85;;;1.60;;
2928;SDS011;1474;51.460;7.150;2024-01-15T11:44:29;4.50;;;1.45;;
2928;SDS011;1474;51.460;7.150;2024-01-15T11:46:59;2.40;;;1.42;;
2928;SDS011;1474;51.460;7.150;2024-01-15T11:52:36;3.15;;;1.55;;
2928;SDS011;1474;51.460;7.150;2024-01-15T11:57:50;2.67;;;1.35;;
2928;SDS011;1474;51.460;7.150;2024-01-15T12:00:19;6.07;;;1.80;;
2928;SDS011;1474;51.460;7.150;2024-01-15T12:02:47;1.50;;;1.20;;
2928;SDS011;1474;51.460;7.150;2024-01-15T12:05:15;3.17;;;1.30;;
2928;SDS011;1474;51.460;7.150;2024-01-15T12:07:43;1.75;;;1.27;;
2928;SDS011;1474;51.460;7.150;2024-01-15T12:10:18;2.60;;;1.63;;
2928;SDS011;1474;51.460;7.150;2024-01-15T12:15:20;2.13;;;1.02;;
2928;SDS011;1474;51.460;7.150;2024-01-15T12:17:46;1.92;;;1.20;;
2928;SDS011;1474;51.460;7.150;2024-01-15T12:20:12;2.13;;;1.27;;
2928;SDS011;1474;51.460;7.150;2024-01-15T12:22:40;2.72;;;1.58;;
2928;SDS011;1474;51.460;7.150;2024-01-15T12:25:06;1.92;;;1.20;;
2928;SDS011;1474;51.460;7.150;2024-01-15T12:27:32;2.20;;;1.20;;
2928;SDS011;1474;51.460;7.150;2024-01-15T12:29:59;3.10;;;1.20;;
2928;SDS011;1474;51.460;7.150;2024-01-15T12:32:24;2.33;;;1.40;;
2928;SDS011;1474;51.460;7.150;2024-01-15T12:34:50;2.25;;;1.65;;
2928;SDS011;1474;51.460;7.150;2024-01-15T12:37:19;4.30;;;1.48;;
2928;SDS011;1474;51.460;7.150;2024-01-15T12:39:46;2.20;;;1.42;;
2928;SDS011;1474;51.460;7.150;2024-01-15T12:42:16;2.60;;;1.40;;
2928;SDS011;1474;51.460;7.150;2024-01-15T12:44:42;2.22;;;1.40;;
2928;SDS011;1474;51.460;7.150;2024-01-15T12:47:10;3.13;;;1.42;;
2928;SDS011;1474;51.460;7.150;2024-01-15T12:49:36;1.58;;;1.10;;
2928;SDS011;1474;51.460;7.150;2024-01-15T12:52:07;4.82;;;1.17;;
2928;SDS011;1474;51.460;7.150;2024-01-15T12:54:34;2.72;;;1.33;;
2928;SDS011;1474;51.460;7.150;2024-01-15T12:57:00;2.13;;;1.20;;
2928;SDS011;1474;51.460;7.150;2024-01-15T12:59:26;2.15;;;1.40;;
2928;SDS011;1474;51.460;7.150;2024-01-15T13:01:52;1.77;;;1.00;;
2928;SDS011;1474;51.460;7.150;2024-01-15T13:04:21;4.00;;;1.15;;
2928;SDS011;1474;51.460;7.150;2024-01-15T13:06:50;3.15;;;1.15;;
2928;SDS011;1474;51.460;7.150;2024-01-15T13:09:16;1.70;;;1.15;;
2928;SDS011;1474;51.460;7.150;2024-01-15T13:11:46;2.08;;;1.00;;
2928;SDS011;1474;51.460;7.150;2024-01-15T13:14:12;2.33;;;1.35;;
2928;SDS011;1474;51.460;7.150;2024-01-15T13:16:39;1.48;;;1.13;;
2928;SDS011;1474;51.460;7.150;2024-01-15T13:19:07;2.38;;;1.30;;
2928;SDS011;1474;51.460;7.150;2024-01-15T13:21:34;1.73;;;1.52;;
2928;SDS011;1474;51.460;7.150;2024-01-15T13:24:00;2.60;;;1.25;;
2928;SDS011;1474;51.460;7.150;2024-01-15T13:26:25;2.45;;;1.58;;
2928;SDS011;1474;51.460;7.150;2024-01-15T13:28:51;1.63;;;1.20;;
2928;SDS011;1474;51.460;7.150;2024-01-15T13:31:18;1.65;;;1.00;;
2928;SDS011;1474;51.460;7.150;2024-01-15T13:33:44;1.88;;;1.13;;
2928;SDS011;1474;51.460;7.150;2024-01-15T13:36:10;1.92;;;1.20;;
2928;SDS011;1474;51.460;7.150;2024-01-15T13:38:36;2.20;;;1.13;;
2928;SDS011;1474;51.460;7.150;2024-01-15T13:41:04;1.48;;;1.08;;
2928;SDS011;1474;51.460;7.150;2024-01-15T13:43:33;1.92;;;1.50;;
2928;SDS011;1474;51.460;7.150;2024-01-15T13:45:59;1.65;;;1.38;;
2928;SDS011;1474;51.460;7.150;2024-01-15T13:48:25;2.55;;;1.40;;
2928;SDS011;1474;51.460;7.150;2024-01-15T13:50:52;1.10;;;1.00;;
2928;SDS011;1474;51.460;7.150;2024-01-15T13:53:18;2.15;;;1.23;;
2928;SDS011;1474;51.460;7.150;2024-01-15T13:55:44;1.48;;;1.20;;
2928;SDS011;1474;51.460;7.150;2024-01-15T13:58:10;1.63;;;1.27;;
2928;SDS011;1474;51.460;7.150;2024-01-15T14:00:36;1.92;;;1.20;;
2928;SDS011;1474;51.460;7.150;2024-01-15T14:03:02;1.77;;;1.05;;
2928;SDS011;1474;51.460;7.150;2024-01-15T14:05:28;2.20;;;0.98;;
2928;SDS011;1474;51.460;7.150;2024-01-15T14:07:54;1.80;;;1.00;;
2928;SDS011;1474;51.460;7.150;2024-01-15T14:10:20;3.13;;;1.25;;
2928;SDS011;1474;51.460;7.150;2024-01-15T14:12:46;1.83;;;1.23;;
2928;SDS011;1474;51.460;7.150;2024-01-15T14:15:12;1.58;;;1.05;;
2928;SDS011;1474;51.460;7.150;2024-01-15T14:17:38;1.65;;;1.08;;
2928;SDS011;1474;51.460;7.150;2024-01-15T14:20:04;2.03;;;1.10;;
2928;SDS011;1474;51.460;7.150;2024-01-15T14:22:31;1.08;;;0.95;;
2928;SDS011;1474;51.460;7.150;2024-01-15T14:24:57;2.00;;;1.00;;
2928;SDS011;1474;51.460;7.150;2024-01-15T14:27:22;1.70;;;0.95;;
2928;SDS011;1474;51.460;7.150;2024-01-15T14:29:49;1.45;;;1.00;;
2928;SDS011;1474;51.460;7.150;2024-01-15T14:32:14;2.00;;;1.40;;
2928;SDS011;1474;51.460;7.150;2024-01-15T14:34:40;1.33;;;1.20;;
2928;SDS011;1474;51.460;7.150;2024-01-15T14:37:06;2.65;;;1.38;;
2928;SDS011;1474;51.460;7.150;2024-01-15T14:39:31;1.10;;;0.95;;
2928;SDS011;1474;51.460;7.150;2024-01-15T14:41:59;1.38;;;1.02;;
2928;SDS011;1474;51.460;7.150;2024-01-15T14:44:25;1.23;;;0.88;;
2928;SDS011;1474;51.460;7.150;2024-01-15T14:46:53;1.85;;;0.95;;
2928;SDS011;1474;51.460;7.150;2024-01-15T14:49:19;1.17;;;0.90;;
2928;SDS011;1474;51.460;7.150;2024-01-15T14:51:47;1.90;;;1.17;;
2928;SDS011;1474;51.460;7.150;2024-01-15T14:54:14;1.35;;;1.25;;
2928;SDS011;1474;51.460;7.150;2024-01-15T14:56:40;1.75;;;1.10;;
2928;SDS011;1474;51.460;7.150;2024-01-15T14:59:05;1.95;;;1.20;;
2928;SDS011;1474;51.460;7.150;2024-01-15T15:01:31;1.60;;;0.90;;
2928;SDS011;1474;51.460;7.150;2024-01-15T15:03:57;2.22;;;0.95;;
2928;SDS011;1474;51.460;7.150;2024-01-15T15:06:23;1.70;;;1.00;;
2928;SDS011;1474;51.460;7.150;2024-01-15T15:08:52;2.47;;;1.27;;
2928;SDS011;1474;51.460;7.150;2024-01-15T15:11:24;1.42;;;1.00;;
2928;SDS011;1474;51.460;7.150;2024-01-15T15:13:51;1.15;;;0.82;;
2928;SDS011;1474;51.460;7.150;2024-01-15T15:16:17;2.15;;;1.30;;
2928;SDS011;1474;51.460;7.150;2024-01-15T15:18:43;1.90;;;1.20;;
2928;SDS011;1474;51.460;7.150;2024-01-15T15:21:09;0.90;;;0.85;;
2928;SDS011;1474;51.460;7.150;2024-01-15T15:23:36;2.25;;;1.10;;
2928;SDS011;1474;51.460;7.150;2024-01-15T15:26:04;1.80;;;0.90;;
2928;SDS011;1474;51.460;7.150;2024-01-15T15:28:30;1.20;;;0.90;;
2928;SDS011;1474;51.460;7.150;2024-01-15T15:30:55;2.13;;;0.95;;
2928;SDS011;1474;51.460;7.150;2024-01-15T15:33:24;2.05;;;1.00;;
2928;SDS011;1474;51.460;7.150;2024-01-15T15:35:50;1.70;;;1.30;;
2928;SDS011;1474;51.460;7.150;2024-01-15T15:38:16;3.20;;;0.98;;
2928;SDS011;1474;51.460;7.150;2024-01-15T15:40:42;1.52;;;1.13;;
2928;SDS011;1474;51.460;7.150;2024-01-15T15:43:08;3.67;;;1.15;;
2928;SDS011;1474;51.460;7.150;2024-01-15T15:45:34;2.42;;;1.20;;
2928;SDS011;1474;51.460;7.150;2024-01-15T15:47:59;2.30;;;1.08;;
2928;SDS011;1474;51.460;7.150;2024-01-15T15:50:25;4.78;;;1.30;;
2928;SDS011;1474;51.460;7.150;2024-01-15T15:52:51;5.60;;;1.50;;
2928;SDS011;1474;51.460;7.150;2024-01-15T15:55:17;2.53;;;0.93;;
2928;SDS011;1474;51.460;7.150;2024-01-15T15:57:43;3.45;;;1.27;;
2928;SDS011;1474;51.460;7.150;2024-01-15T16:00:09;1.33;;;1.23;;
2928;SDS011;1474;51.460;7.150;2024-01-15T16:02:36;2.80;;;1.05;;
2928;SDS011;1474;51.460;7.150;2024-01-15T16:05:02;2.40;;;1.10;;
2928;SDS011;1474;51.460;7.150;2024-01-15T16:07:34;2.60;;;1.02;;
2928;SDS011;1474;51.460;7.150;2024-01-15T16:10:00;4.00;;;1.50;;
2928;SDS011;1474;51.460;7.150;2024-01-15T16:12:26;2.47;;;1.00;;
2928;SDS011;1474;51.460;7.150;2024-01-15T16:14:55;2.28;;;0.85;;
2928;SDS011;1474;51.460;7.150;2024-01-15T16:17:21;3.22;;;1.52;;
2928;SDS011;1474;51.460;7.150;2024-01-15T16:19:46;3.05;;;1.05;;
2928;SDS011;1474;51.460;7.150;2024-01-15T16:22:12;2.53;;;0.95;;
2928;SDS011;1474;51.460;7.150;2024-01-15T16:24:38;3.30;;;1.20;;
2928;SDS011;1474;51.460;7.150;2024-01-15T16:27:04;2.05;;;1.20;;
2928;SDS011;1474;51.460;7.150;2024-01-15T16:29:30;1.48;;;0.70;;
2928;SDS011;1474;51.460;7.150;2024-01-15T16:31:56;3.30;;;1.15;;
2928;SDS011;1474;51.460;7.150;2024-01-15T16:34:21;2.20;;;1.63;;
2928;SDS011;1474;51.460;7.150;2024-01-15T16:36:47;1.88;;;1.10;;
2928;SDS011;1474;51.460;7.150;2024-01-15T16:39:13;2.33;;;1.25;;
2928;SDS011;1474;51.460;7.150;2024-01-15T16:41:39;1.98;;;1.00;;
2928;SDS011;1474;51.460;7.150;2024-01-15T16:44:04;3.30;;;1.52;;
2928;SDS011;1474;51.460;7.150;2024-01-15T16:46:30;2.10;;;1.20;;
2928;SDS011;1474;51.460;7.150;2024-01-15T16:48:56;2.70;;;1.20;;
2928;SDS011;1474;51.460;7.150;2024-01-15T16:51:22;1.73;;;1.00;;
2928;SDS011;1474;51.460;7.150;2024-01-15T16:53:47;1.67;;;1.02;;
2928;SDS011;1474;51.460;7.150;2024-01-15T16:56:13;1.90;;;1.15;;
2928;SDS011;1474;51.460;7.150;2024-01-15T16:58:39;2.13;;;1.10;;
2928;SDS011;1474;51.460;7.150;2024-01-15T17:01:04;1.45;;;0.90;;
2928;SDS011;1474;51.460;7.150;2024-01-15T17:03:32;2.47;;;1.52;;
2928;SDS011;1474;51.460;7.150;2024-01-15T17:05:58;1.75;;;0.95;;
2928;SDS011;1474;51.460;7.150;2024-01-15T17:08:24;2.00;;;1.10;;
2928;SDS011;1474;51.460;7.150;2024-01-15T17:10:50;1.33;;;1.13;;
2928;SDS011;1474;51.460;7.150;2024-01-15T17:13:15;1.75;;;1.00;;
2928;SDS011;1474;51.460;7.150;2024-01-15T17:15:41;1.52;;;0.90;;
2928;SDS011;1474;51.460;7.150;2024-01-15T17:18:07;3.15;;;1.00;;
2928;SDS011;1474;51.460;7.150;2024-01-15T17:20:33;1.63;;;1.05;;
2928;SDS011;1474;51.460;7.150;2024-01-15T17:22:58;2.17;;;1.17;;
2928;SDS011;1474;51.460;7.150;2024-01-15T17:25:27;1.35;;;0.90;;
2928;SDS011;1474;51.460;7.150;2024-01-15T17:27:53;1.05;;;0.88;;
2928;SDS011;1474;51.460;7.150;2024-01-15T17:30:19;1.95;;;1.10;;
2928;SDS011;1474;51.460;7.150;2024-01-15T17:32:44;2.00;;;1.10;;
2928;SDS011;1474;51.460;7.150;2024-01-15T17:35:10;1.70;;;1.00;;
2928;SDS011;1474;51.460;7.150;2024-01-15T17:37:36;4.18;;;1.30;;
2928;SDS011;1474;51.460;7.150;2024-01-15T17:40:02;1.15;;;0.80;;
2928;SDS011;1474;51.460;7.150;2024-01-15T17:42:29;3.28;;;1.00;;
2928;SDS011;1474;51.460;7.150;2024-01-15T17:44:55;1.50;;;1.00;;
2928;SDS011;1474;51.460;7.150;2024-01-15T17:47:20;1.67;;;1.15;;
2928;SDS011;1474;51.460;7.150;2024-01-15T17:49:46;1.00;;;0.88;;
2928;SDS011;1474;51.460;7.150;2024-01-15T17:52:13;2.15;;;1.00;;
2928;SDS011;1474;51.460;7.150;2024-01-15T17:54:38;1.92;;;0.93;;
2928;SDS011;1474;51.460;7.150;2024-01-15T17:57:04;2.78;;;0.85;;
2928;SDS011;1474;51.460;7.150;2024-01-15T17:59:30;3.22;;;0.85;;
2928;SDS011;1474;51.460;7.150;2024-01-15T18:01:55;3.28;;;1.02;;
2928;SDS011;1474;51.460;7.150;2024-01-15T18:04:21;1.02;;;0.90;;
2928;SDS011;1474;51.460;7.150;2024-01-15T18:06:47;1.88;;;1.05;;
2928;SDS011;1474;51.460;7.150;2024-01-15T18:09:13;1.08;;;0.90;;
2928;SDS011;1474;51.460;7.150;2024-01-15T18:11:42;1.73;;;1.00;;
2928;SDS011;1474;51.460;7.150;2024-01-15T18:14:09;1.13;;;0.80;;
2928;SDS011;1474;51.460;7.150;2024-01-15T18:16:35;1.08;;;0.88;;
2928;SDS011;1474;51.460;7.150;2024-01-15T18:19:02;2.05;;;0.90;;
2928;SDS011;1474;51.460;7.150;2024-01-15T18:21:28;0.95;;;0.70;;
2928;SDS011;1474;51.460;7.150;2024-01-15T18:23:54;1.80;;;1.10;;
2928;SDS011;1474;51.460;7.150;2024-01-15T18:26:20;1.60;;;0.90;;
2928;SDS011;1474;51.460;7.150;2024-01-15T18:28:45;1.58;;;0.85;;
2928;SDS011;1474;51.460;7.150;2024-01-15T18:31:11;1.60;;;1.30;;
2928;SDS011;1474;51.460;7.150;2024-01-15T18:33:37;1.27;;;0.98;;
2928;SDS011;1474;51.460;7.150;2024-01-15T18:36:04;2.05;;;0.93;;
2928;SDS011;1474;51.460;7.150;2024-01-15T18:38:34;2.42;;;0.90;;
2928;SDS011;1474;51.460;7.150;2024-01-15T18:41:00;1.73;;;1.27;;
2928;SDS011;1474;51.460;7.150;2024-01-15T18:43:29;1.80;;;0.88;;
2928;SDS011;1474;51.460;7.150;2024-01-15T18:46:04;3.30;;;1.10;;
2928;SDS011;1474;51.460;7.150;2024-01-15T18:48:32;4.40;;;1.73;;
2928;SDS011;1474;51.460;7.150;2024-01-15T18:50:58;3.15;;;2.33;;
2928;SDS011;1474;51.460;7.150;2024-01-15T18:53:24;2.70;;;1.90;;
2928;SDS011;1474;51.460;7.150;2024-01-15T18:55:50;3.05;;;2.15;;
2928;SDS011;1474;51.460;7.150;2024-01-15T18:58:18;3.65;;;2.67;;
2928;SDS011;1474;51.460;7.150;2024-01-15T19:00:44;3.15;;;2.25;;
2928;SDS011;1474;51.460;7.150;2024-01-15T19:03:09;3.60;;;2.70;;
2928;SDS011;1474;51.460;7.150;2024-01-15T19:05:37;3.13;;;2.30;;
2928;SDS011;1474;51.460;7.150;2024-01-15T19:08:06;3.83;;;2.28;;
2928;SDS011;1474;51.460;7.150;2024-01-15T19:10:32;3.05;;;2.60;;
2928;SDS011;1474;51.460;7.150;2024-01-15T19:12:58;3.35;;;1.60;;
2928;SDS011;1474;51.460;7.150;2024-01-15T19:15:24;3.85;;;2.15;;
2928;SDS011;1474;51.460;7.150;2024-01-15T19:17:50;2.78;;;1.83;;
2928;SDS011;1474;51.460;7.150;2024-01-15T19:20:16;3.05;;;2.10;;
2928;SDS011;1474;51.460;7.150;2024-01-15T19:22:42;2.85;;;1.70;;
2928;SDS011;1474;51.460;7.150;2024-01-15T19:25:08;3.22;;;1.92;;
2928;SDS011;1474;51.460;7.150;2024-01-15T19:27:36;2.72;;;2.05;;
2928;SDS011;1474;51.460;7.150;2024-01-15T19:30:08;2.20;;;1.80;;
2928;SDS011;1474;51.460;7.150;2024-01-15T19:32:38;2.28;;;1.70;;
2928;SDS011;1474;51.460;7.150;2024-01-15T19:35:06;2.30;;;1.90;;
2928;SDS011;1474;51.460;7.150;2024-01-15T19:37:35;3.23;;;1.77;;
2928;SDS011;1474;51.460;7.150;2024-01-15T19:40:02;3.47;;;1.95;;
2928;SDS011;1474;51.460;7.150;2024-01-15T19:42:28;2.97;;;1.83;;
2928;SDS011;1474;51.460;7.150;2024-01-15T19:44:54;3.00;;;2.30;;
2928;SDS011;1474;51.460;7.150;2024-01-15T19:47:22;3.85;;;1.88;;
2928;SDS011;1474;51.460;7.150;2024-01-15T19:49:47;2.83;;;1.77;;
2928;SDS011;1474;51.460;7.150;2024-01-15T19:52:13;3.05;;;1.60;;
2928;SDS011;1474;51.460;7.150;2024-01-15T19:54:39;2.80;;;1.67;;
2928;SDS011;1474;51.460;7.150;2024-01-15T19:57:05;2.65;;;1.75;;
2928;SDS011;1474;51.460;7.150;2024-01-15T19:59:31;3.47;;;1.85;;
2928;SDS011;1474;51.460;7.150;2024-01-15T20:01:57;2.72;;;1.90;;
2928;SDS011;1474;51.460;7.150;2024-01-15T20:04:23;2.45;;;1.90;;
2928;SDS011;1474;51.460;7.150;2024-01-15T20:06:49;3.25;;;1.70;;
2928;SDS011;1474;51.460;7.150;2024-01-15T20:09:16;2.70;;;1.83;;
2928;SDS011;1474;51.460;7.150;2024-01-15T20:11:42;3.22;;;1.80;;
2928;SDS011;1474;51.460;7.150;2024-01-15T20:14:09;2.22;;;1.55;;
2928;SDS011;1474;51.460;7.150;2024-01-15T20:16:35;2.75;;;1.60;;
2928;SDS011;1474;51.460;7.150;2024-01-15T20:19:01;3.85;;;1.90;;
2928;SDS011;1474;51.460;7.150;2024-01-15T20:21:27;3.90;;;1.90;;
2928;SDS011;1474;51.460;7.150;2024-01-15T20:23:53;3.85;;;1.77;;
2928;SDS011;1474;51.460;7.150;2024-01-15T20:26:19;2.83;;;1.42;;
2928;SDS011;1474;51.460;7.150;2024-01-15T20:28:44;2.75;;;1.90;;
2928;SDS011;1474;51.460;7.150;2024-01-15T20:31:14;2.17;;;1.60;;
2928;SDS011;1474;51.460;7.150;2024-01-15T20:33:41;3.42;;;1.73;;
2928;SDS011;1474;51.460;7.150;2024-01-15T20:36:07;2.83;;;1.50;;
2928;SDS011;1474;51.460;7.150;2024-01-15T20:38:36;2.72;;;1.60;;
2928;SDS011;1474;51.460;7.150;2024-01-15T20:41:03;4.05;;;1.70;;
2928;SDS011;1474;51.460;7.150;2024-01-15T20:43:29;3.70;;;1.60;;
2928;SDS011;1474;51.460;7.150;2024-01-15T20:45:55;2.95;;;1.52;;
2928;SDS011;1474;51.460;7.150;2024-01-15T20:48:21;3.08;;;1.45;;
2928;SDS011;1474;51.460;7.150;2024-01-15T20:50:49;2.20;;;1.50;;
2928;SDS011;1474;51.460;7.150;2024-01-15T20:53:15;2.30;;;1.73;;
2928;SDS011;1474;51.460;7.150;2024-01-15T20:55:41;3.47;;;1.60;;
2928;SDS011;1474;51.460;7.150;2024-01-15T20:58:07;3.20;;;1.50;;
2928;SDS011;1474;51.460;7.150;2024-01-15T21:00:33;1.50;;;1.02;;
2928;SDS011;1474;51.460;7.150;2024-01-15T21:02:59;1.20;;;0.90;;
2928;SDS011;1474;51.460;7.150;2024-01-15T21:05:26;3.10;;;1.73;;
2928;SDS011;1474;51.460;7.150;2024-01-15T21:07:52;2.63;;;1.33;;
2928;SDS011;1474;51.460;7.150;2024-01-15T21:10:17;2.03;;;1.55;;
2928;SDS011;1474;51.460;7.150;2024-01-15T21:12:43;1.83;;;1.17;;
2928;SDS011;1474;51.460;7.150;2024-01-15T21:15:09;3.42;;;1.33;;
2928;SDS011;1474;51.460;7.150;2024-01-15T21:17:35;3.30;;;1.58;;
2928;SDS011;1474;51.460;7.150;2024-01-15T21:20:01;2.03;;;1.55;;
2928;SDS011;1474;51.460;7.150;2024-01-15T21:22:34;2.05;;;1.20;;
2928;SDS011;1474;51.460;7.150;2024-01-15T21:25:01;2.38;;;1.20;;
2928;SDS011;1474;51.460;7.150;2024-01-15T21:27:28;1.63;;;1.33;;
2928;SDS011;1474;51.460;7.150;2024-01-15T21:29:54;2.03;;;1.30;;